createdAt,value
2023-01-03T00:01:52.379Z,8.88
2023-01-03T00:04:21.413Z,8.81
2023-01-03T00:06:52.928Z,8.86
2023-01-03T00:09:24.305Z,8.91
2023-01-03T00:12:12.509Z,8.85
2023-01-03T00:14:43.387Z,8.76
2023-01-03T00:17:12.789Z,8.98
2023-01-03T00:19:44.841Z,8.82
2023-01-03T00:22:14.459Z,8.78
2023-01-03T00:24:43.510Z,8.78
2023-01-03T00:27:11.582Z,8.81
2023-01-03T00:29:39.546Z,8.89
2023-01-03T00:32:07.537Z,8.74
2023-01-03T00:34:36.258Z,8.90
2023-01-03T00:37:04.741Z,8.74
2023-01-03T00:39:33.234Z,8.65
2023-01-03T00:42:00.579Z,8.70
2023-01-03T00:44:28.329Z,8.66
2023-01-03T00:46:55.760Z,8.71
2023-01-03T00:49:23.955Z,8.79
2023-01-03T00:51:53.868Z,8.76
2023-01-03T00:54:22.796Z,8.63
2023-01-03T00:56:51.537Z,8.61
2023-01-03T00:59:21.548Z,8.62
2023-01-03T01:01:53.528Z,8.65
2023-01-03T01:04:31.837Z,8.63
2023-01-03T01:07:04.525Z,8.64
2023-01-03T01:09:37.046Z,8.78
2023-01-03T01:12:07.300Z,8.59
2023-01-03T01:14:35.417Z,8.71
2023-01-03T01:17:07.933Z,8.63
2023-01-03T01:19:42.968Z,8.62
2023-01-03T01:22:11.986Z,8.55
2023-01-03T01:24:39.888Z,8.57
2023-01-03T01:27:07.457Z,8.50
2023-01-03T01:29:35.151Z,8.58
2023-01-03T01:32:03.856Z,8.59
2023-01-03T01:34:31.730Z,8.53
2023-01-03T01:36:59.400Z,8.56
2023-01-03T01:39:29.163Z,8.49
2023-01-03T01:42:27.312Z,8.53
2023-01-03T01:45:05.023Z,8.52
2023-01-03T01:47:54.515Z,8.55
2023-01-03T01:50:46.293Z,8.49
2023-01-03T01:53:30.162Z,8.45
2023-01-03T01:56:14.913Z,8.52
2023-01-03T01:58:46.040Z,8.48
2023-01-03T02:01:17.858Z,8.53
2023-01-03T02:04:01.555Z,8.52
2023-01-03T02:06:32.580Z,8.68
2023-01-03T02:09:00.483Z,8.64
2023-01-03T02:12:14.391Z,8.73
2023-01-03T02:15:08.808Z,8.75
2023-01-03T02:18:09.387Z,8.75
2023-01-03T02:21:19.586Z,8.74
2023-01-03T02:24:12.163Z,8.75
2023-01-03T02:27:03.129Z,8.89
2023-01-03T02:29:36.194Z,8.98
2023-01-03T02:32:52.933Z,8.95
2023-01-03T02:35:40.583Z,8.97
2023-01-03T02:38:36.287Z,9.16
2023-01-03T02:41:23.406Z,9.19
2023-01-03T02:44:05.890Z,9.16
2023-01-03T02:46:49.473Z,9.24
2023-01-03T02:49:38.059Z,9.34
2023-01-03T02:52:14.102Z,9.41
2023-01-03T02:54:48.211Z,9.51
2023-01-03T02:57:26.983Z,9.52
2023-01-03T03:00:19.805Z,9.55
2023-01-03T03:02:54.455Z,9.67
2023-01-03T03:06:09.820Z,9.54
2023-01-03T03:08:37.908Z,9.57
2023-01-03T03:11:24.182Z,9.57
2023-01-03T03:14:01.835Z,9.68
2023-01-03T03:16:48.845Z,9.65
2023-01-03T03:19:53.699Z,9.66
2023-01-03T03:23:05.034Z,9.70
2023-01-03T03:25:59.749Z,9.73
2023-01-03T03:28:37.488Z,9.86
2023-01-03T03:31:26.026Z,9.81
2023-01-03T03:34:18.752Z,9.75
2023-01-03T03:37:10.443Z,9.80
2023-01-03T03:39:56.958Z,9.75
2023-01-03T03:43:03.263Z,9.73
2023-01-03T03:45:52.325Z,9.68
2023-01-03T03:49:07.477Z,9.62
2023-01-03T03:51:38.900Z,9.66
2023-01-03T03:54:15.590Z,9.70
2023-01-03T03:56:48.355Z,9.68
2023-01-03T03:59:20.472Z,9.76
2023-01-03T04:01:49.269Z,9.72
2023-01-03T04:04:27.432Z,9.78
2023-01-03T04:06:55.186Z,9.83
2023-01-03T04:09:23.041Z,9.70
2023-01-03T04:11:50.374Z,9.70
2023-01-03T04:14:18.024Z,9.67
2023-01-03T04:16:45.275Z,9.74
2023-01-03T04:19:12.979Z,9.62
2023-01-03T04:21:40.344Z,9.62
2023-01-03T04:24:08.403Z,9.76
2023-01-03T04:26:35.771Z,9.65
2023-01-03T04:29:03.316Z,9.53
2023-01-03T04:31:30.804Z,9.58
2023-01-03T04:33:58.382Z,9.53
2023-01-03T04:36:25.729Z,9.63
2023-01-03T04:38:53.321Z,9.76
2023-01-03T04:41:20.713Z,9.69
2023-01-03T04:44:04.491Z,9.56
2023-01-03T04:46:38.650Z,9.60
2023-01-03T04:49:10.250Z,9.62
2023-01-03T04:51:38.493Z,9.58
2023-01-03T04:54:07.290Z,9.47
2023-01-03T04:56:38.379Z,9.52
2023-01-03T04:59:06.080Z,9.46
2023-01-03T05:01:33.773Z,9.39
2023-01-03T05:04:02.757Z,9.44
2023-01-03T05:06:30.800Z,9.36
2023-01-03T05:08:58.379Z,9.42
2023-01-03T05:11:25.660Z,9.28
2023-01-03T05:13:53.280Z,9.27
2023-01-03T05:16:20.601Z,9.33
2023-01-03T05:18:51.367Z,9.39
2023-01-03T05:21:40.654Z,9.35
2023-01-03T05:24:30.986Z,9.35
2023-01-03T05:27:04.430Z,9.31
2023-01-03T05:29:36.614Z,9.35
2023-01-03T05:32:04.234Z,9.26
2023-01-03T05:34:31.864Z,9.30
2023-01-03T05:36:59.202Z,9.30
2023-01-03T05:39:26.777Z,9.21
2023-01-03T05:42:00.148Z,9.36
2023-01-03T05:44:33.975Z,9.30
2023-01-03T05:47:04.324Z,9.25
2023-01-03T05:49:32.013Z,9.36
2023-01-03T05:51:59.297Z,9.37
2023-01-03T05:54:27.070Z,9.42
2023-01-03T05:56:54.495Z,9.42
2023-01-03T05:59:22.926Z,9.44
2023-01-03T06:01:51.006Z,9.45
2023-01-03T06:04:18.953Z,9.43
2023-01-03T06:06:46.991Z,9.32
2023-01-03T06:09:14.720Z,9.31
2023-01-03T06:11:43.049Z,9.39
2023-01-03T06:14:10.903Z,9.43
2023-01-03T06:16:56.928Z,9.42
2023-01-03T06:19:24.793Z,9.48
2023-01-03T06:21:52.161Z,9.56
2023-01-03T06:24:19.735Z,9.52
2023-01-03T06:26:47.080Z,9.51
2023-01-03T06:29:14.870Z,9.56
2023-01-03T06:31:42.182Z,9.64
2023-01-03T06:34:09.713Z,9.59
2023-01-03T06:36:37.485Z,9.54
2023-01-03T06:39:05.073Z,9.50
2023-01-03T06:41:32.423Z,9.56
2023-01-03T06:44:00.049Z,9.60
2023-01-03T06:46:46.165Z,9.65
2023-01-03T06:49:36.758Z,9.70
2023-01-03T06:52:29.887Z,9.75
2023-01-03T06:54:57.479Z,9.78
2023-01-03T06:57:26.586Z,9.78
2023-01-03T06:59:55.798Z,9.78
2023-01-03T07:02:23.387Z,9.89
2023-01-03T07:04:51.261Z,9.88
2023-01-03T07:07:18.655Z,9.99
2023-01-03T07:09:46.280Z,10.04
2023-01-03T07:12:32.314Z,10.02
2023-01-03T07:15:00.037Z,10.22
2023-01-03T07:17:27.349Z,10.30
2023-01-03T07:19:55.057Z,10.30
2023-01-03T07:22:22.395Z,10.35
2023-01-03T07:24:49.959Z,10.45
2023-01-03T07:27:17.222Z,10.52
2023-01-03T07:29:44.808Z,10.44
2023-01-03T07:32:12.083Z,10.43
2023-01-03T07:34:39.692Z,10.30
2023-01-03T07:37:06.971Z,10.30
2023-01-03T07:39:34.512Z,10.36
2023-01-03T07:42:20.558Z,10.34
2023-01-03T07:44:48.155Z,10.44
2023-01-03T07:47:15.483Z,10.38
2023-01-03T07:49:43.034Z,10.42
2023-01-03T07:52:10.343Z,10.49
2023-01-03T07:54:38.044Z,10.54
2023-01-03T07:57:05.352Z,10.60
2023-01-03T07:59:33.000Z,10.73
2023-01-03T08:02:00.429Z,10.75
2023-01-03T08:04:28.530Z,10.80
2023-01-03T08:06:56.272Z,10.92
2023-01-03T08:09:42.804Z,10.93
2023-01-03T08:12:29.697Z,11.00
2023-01-03T08:14:57.355Z,11.18
2023-01-03T08:17:24.642Z,11.37
2023-01-03T08:19:52.311Z,11.56
2023-01-03T08:22:19.643Z,11.68
2023-01-03T08:24:47.261Z,11.78
2023-01-03T08:27:14.583Z,12.03
2023-01-03T08:29:42.153Z,12.15
2023-01-03T08:32:09.548Z,12.23
2023-01-03T08:34:41.856Z,12.48
2023-01-03T08:37:13.046Z,12.57
2023-01-03T08:40:02.434Z,13.18
2023-01-03T08:42:30.786Z,13.41
2023-01-03T08:45:04.288Z,13.81
2023-01-03T08:47:31.731Z,14.19
2023-01-03T08:50:00.704Z,14.37
2023-01-03T08:52:34.570Z,15.02
2023-01-03T08:55:03.795Z,15.02
2023-01-03T08:57:31.727Z,14.85
2023-01-03T08:59:59.387Z,14.85
2023-01-03T09:02:27.012Z,14.52
2023-01-03T09:04:54.839Z,14.25
2023-01-03T09:07:22.203Z,14.20
2023-01-03T09:09:49.743Z,14.04
2023-01-03T09:12:17.172Z,14.03
2023-01-03T09:14:44.886Z,13.73
2023-01-03T09:17:12.259Z,13.78
2023-01-03T09:19:39.941Z,13.69
2023-01-03T09:22:07.246Z,13.65
2023-01-03T09:24:34.984Z,13.62
2023-01-03T09:27:02.552Z,13.72
2023-01-03T09:29:30.385Z,13.81
2023-01-03T09:31:58.272Z,13.82
2023-01-03T09:34:26.519Z,13.64
2023-01-03T09:36:53.862Z,13.65
2023-01-03T09:39:21.533Z,14.00
2023-01-03T09:42:08.961Z,14.31
2023-01-03T09:44:39.687Z,14.97
2023-01-03T09:47:13.957Z,15.48
2023-01-03T09:50:04.647Z,15.65
2023-01-03T09:52:51.810Z,15.41
2023-01-03T09:56:13.991Z,15.47
2023-01-03T09:59:03.352Z,16.91
2023-01-03T10:01:59.640Z,16.98
2023-01-03T10:04:52.187Z,16.60
2023-01-03T10:07:44.092Z,16.70
2023-01-03T10:10:22.350Z,16.29
2023-01-03T10:13:20.177Z,16.12
2023-01-03T10:15:56.737Z,16.52
2023-01-03T10:18:45.022Z,16.46
2023-01-03T10:21:52.275Z,16.09
2023-01-03T10:24:30.510Z,16.16
2023-01-03T10:27:14.121Z,15.82
2023-01-03T10:29:42.716Z,15.61
2023-01-03T10:32:53.253Z,16.01
2023-01-03T10:35:25.110Z,17.43
2023-01-03T10:37:57.542Z,18.75
2023-01-03T10:40:42.591Z,19.24
2023-01-03T10:43:28.538Z,20.40
2023-01-03T10:46:06.625Z,21.58
2023-01-03T10:51:54.244Z,20.46
2023-01-03T10:54:35.778Z,20.16
2023-01-03T10:57:06.288Z,19.67
2023-01-03T10:59:35.044Z,19.21
2023-01-03T11:02:08.577Z,18.12
2023-01-03T11:04:37.893Z,17.87
2023-01-03T11:07:08.172Z,18.62
2023-01-03T11:09:52.134Z,17.71
2023-01-03T11:12:40.308Z,17.42
2023-01-03T11:15:25.240Z,17.74
2023-01-03T11:18:20.897Z,19.32
2023-01-03T11:21:14.396Z,19.28
2023-01-03T11:24:12.638Z,18.96
2023-01-03T11:26:49.937Z,20.78
2023-01-03T11:29:51.376Z,19.91
2023-01-03T11:32:51.510Z,19.32
2023-01-03T11:35:51.608Z,19.36
2023-01-03T11:38:53.978Z,18.42
2023-01-03T11:42:15.475Z,19.11
2023-01-03T11:45:12.391Z,17.94
2023-01-03T11:48:15.831Z,17.19
2023-01-03T11:50:58.495Z,16.77
2023-01-03T11:53:49.591Z,16.16
2023-01-03T11:56:22.764Z,15.66
2023-01-03T11:59:11.376Z,15.52
2023-01-03T12:02:10.683Z,15.39
2023-01-03T12:05:19.255Z,15.25
2023-01-03T12:08:10.208Z,15.16
2023-01-03T12:10:58.783Z,14.90
2023-01-03T12:13:59.401Z,14.76
2023-01-03T12:17:05.947Z,15.22
2023-01-03T12:19:55.300Z,14.87
2023-01-03T12:22:41.843Z,14.65
2023-01-03T12:25:42.209Z,14.40
2023-01-03T12:28:10.391Z,14.21
2023-01-03T12:31:00.393Z,13.96
2023-01-03T12:33:41.210Z,13.78
2023-01-03T12:36:37.711Z,13.48
2023-01-03T12:39:48.346Z,13.28
2023-01-03T12:42:40.696Z,13.34
2023-01-03T12:45:08.214Z,13.15
2023-01-03T12:48:28.773Z,13.02
2023-01-03T12:50:56.472Z,12.96
2023-01-03T12:53:47.125Z,12.72
2023-01-03T12:57:00.004Z,12.79
2023-01-03T13:00:01.474Z,12.88
2023-01-03T13:02:54.425Z,13.10
2023-01-03T13:05:50.570Z,13.55
2023-01-03T13:08:27.102Z,13.67
2023-01-03T13:11:04.813Z,13.94
2023-01-03T13:13:34.604Z,14.10
2023-01-03T13:16:37.244Z,14.35
2023-01-03T13:19:40.258Z,14.30
2023-01-03T13:22:35.345Z,14.63
2023-01-03T13:25:30.459Z,14.86
2023-01-03T13:28:21.247Z,14.84
2023-01-03T13:30:49.308Z,14.71
2023-01-03T13:33:20.825Z,14.72
2023-01-03T13:35:48.427Z,14.59
2023-01-03T13:38:24.993Z,14.58
2023-01-03T13:41:18.221Z,14.27
2023-01-03T13:43:52.540Z,13.96
2023-01-03T13:46:32.963Z,13.60
2023-01-03T13:49:06.836Z,13.33
2023-01-03T13:51:39.095Z,13.18
2023-01-03T13:54:56.152Z,13.03
2023-01-03T13:57:50.681Z,12.82
2023-01-03T14:00:22.452Z,12.68
2023-01-03T14:03:10.000Z,12.47
2023-01-03T14:06:19.871Z,12.17
2023-01-03T14:09:11.630Z,12.07
2023-01-03T14:12:22.318Z,12.04
2023-01-03T14:14:57.588Z,12.04
2023-01-03T14:17:32.329Z,12.04
2023-01-03T14:20:09.701Z,12.03
2023-01-03T14:22:48.368Z,12.03
2023-01-03T14:25:33.087Z,11.98
2023-01-03T14:28:15.497Z,11.94
2023-01-03T14:30:44.676Z,11.79
2023-01-03T14:33:38.393Z,11.80
2023-01-03T14:36:14.102Z,11.79
2023-01-03T14:39:15.521Z,11.70
2023-01-03T14:41:43.927Z,11.63
2023-01-03T14:44:11.148Z,11.64
2023-01-03T14:46:50.467Z,11.56
2023-01-03T14:49:35.352Z,11.38
2023-01-03T14:52:16.864Z,11.29
2023-01-03T14:54:49.638Z,11.18
2023-01-03T14:57:26.498Z,11.14
2023-01-03T15:00:00.074Z,11.10
2023-01-03T15:02:35.129Z,10.97
2023-01-03T15:05:04.206Z,10.99
2023-01-03T15:07:39.628Z,10.99
2023-01-03T15:10:12.844Z,10.97
2023-01-03T15:12:49.854Z,10.95
2023-01-03T15:15:27.627Z,10.76
2023-01-03T15:18:04.059Z,10.72
2023-01-03T15:20:43.588Z,10.60
2023-01-03T15:23:41.566Z,10.67
2023-01-03T15:26:22.470Z,10.64
2023-01-03T15:28:56.326Z,10.68
2023-01-03T15:31:47.452Z,10.67
2023-01-03T15:34:38.664Z,10.59
2023-01-03T15:37:24.081Z,10.53
2023-01-03T15:39:55.764Z,10.54
2023-01-03T15:42:58.047Z,10.47
2023-01-03T15:45:38.544Z,10.45
2023-01-03T15:48:15.121Z,10.31
2023-01-03T15:50:56.049Z,10.22
2023-01-03T15:53:42.803Z,10.20
2023-01-03T15:56:34.572Z,10.13
2023-01-03T15:59:09.445Z,10.08
2023-01-03T16:01:37.181Z,10.04
2023-01-03T16:04:04.790Z,10.09
2023-01-03T16:06:32.898Z,10.07
2023-01-03T16:09:00.251Z,10.06
2023-01-03T16:11:33.694Z,10.07
2023-01-03T16:14:08.457Z,10.02
2023-01-03T16:16:41.959Z,10.00
2023-01-03T16:19:24.616Z,10.02
2023-01-03T16:22:32.571Z,10.03
2023-01-03T16:24:45.113Z,10.02
2023-01-03T16:27:19.992Z,9.98
2023-01-03T16:29:47.636Z,9.91
2023-01-03T16:32:20.584Z,9.88
2023-01-03T16:34:49.075Z,9.81
2023-01-03T16:37:17.097Z,9.72
2023-01-03T16:39:48.464Z,9.67
2023-01-03T16:42:16.657Z,9.61
2023-01-03T16:44:46.925Z,9.56
2023-01-03T16:47:34.358Z,9.48
2023-01-03T16:50:11.970Z,9.43
2023-01-03T16:52:45.223Z,9.44
2023-01-03T16:55:28.326Z,9.36
2023-01-03T16:57:57.399Z,9.43
2023-01-03T17:00:31.347Z,9.44
2023-01-03T17:03:00.515Z,9.44
2023-01-03T17:05:36.387Z,9.47
2023-01-03T17:08:29.359Z,9.42
2023-01-03T17:10:58.850Z,9.44
2023-01-03T17:13:41.253Z,9.46
2023-01-03T17:16:23.327Z,9.45
2023-01-03T17:18:53.568Z,9.54
2023-01-03T17:21:34.300Z,9.58
2023-01-03T17:24:27.366Z,9.52
2023-01-03T17:27:03.883Z,9.63
2023-01-03T17:29:32.078Z,9.59
2023-01-03T17:31:59.446Z,9.62
2023-01-03T17:34:31.296Z,9.58
2023-01-03T17:37:01.008Z,9.53
2023-01-03T17:39:28.803Z,9.43
2023-01-03T17:42:16.621Z,9.34
2023-01-03T17:45:08.263Z,9.33
2023-01-03T17:48:02.180Z,9.30
2023-01-03T17:50:32.247Z,9.33
2023-01-03T17:53:02.130Z,9.33
2023-01-03T17:55:31.407Z,9.31
2023-01-03T17:58:03.249Z,9.31
2023-01-03T18:00:32.267Z,9.31
2023-01-03T18:03:02.727Z,9.30
2023-01-03T18:05:31.424Z,9.24
2023-01-03T18:08:01.889Z,9.23
2023-01-03T18:10:46.705Z,9.18
2023-01-03T18:13:34.619Z,9.14
2023-01-03T18:16:03.028Z,9.16
2023-01-03T18:18:32.018Z,9.21
2023-01-03T18:21:00.168Z,9.25
2023-01-03T18:23:31.269Z,9.24
2023-01-03T18:26:04.443Z,9.21
2023-01-03T18:28:32.333Z,9.24
2023-01-03T18:31:00.519Z,9.22
2023-01-03T18:33:28.680Z,9.22
2023-01-03T18:35:56.509Z,9.24
2023-01-03T18:38:33.058Z,9.28
2023-01-03T18:41:05.430Z,9.31
2023-01-03T18:43:34.092Z,9.27
2023-01-03T18:46:01.920Z,9.27
2023-01-03T18:48:29.329Z,9.24
2023-01-03T18:50:59.225Z,9.18
2023-01-03T18:53:32.896Z,9.13
2023-01-03T18:56:01.088Z,9.12
2023-01-03T18:58:40.885Z,8.98
2023-01-03T19:01:11.061Z,8.96
2023-01-03T19:03:45.495Z,8.88
2023-01-03T19:06:25.405Z,8.68
2023-01-03T19:08:52.780Z,8.74
2023-01-03T19:11:29.552Z,8.81
2023-01-03T19:14:01.016Z,8.92
2023-01-03T19:16:32.838Z,8.99
2023-01-03T19:19:00.953Z,9.04
2023-01-03T19:21:36.667Z,9.01
2023-01-03T19:24:18.609Z,9.08
2023-01-03T19:26:52.540Z,9.05
2023-01-03T19:29:28.546Z,9.07
2023-01-03T19:31:57.837Z,9.14
2023-01-03T19:34:27.571Z,9.17
2023-01-03T19:36:55.509Z,9.20
2023-01-03T19:39:25.651Z,9.12
2023-01-03T19:42:18.377Z,9.12
2023-01-03T19:44:46.305Z,9.15
2023-01-03T19:47:18.708Z,9.12
2023-01-03T19:49:47.804Z,9.04
2023-01-03T19:52:19.053Z,9.15
2023-01-03T19:54:46.491Z,9.17
2023-01-03T19:57:32.410Z,9.12
2023-01-03T20:00:02.024Z,9.16
2023-01-03T20:02:40.962Z,9.07
2023-01-03T20:05:30.368Z,9.09
2023-01-03T20:07:58.064Z,9.06
2023-01-03T20:10:27.130Z,9.07
2023-01-03T20:12:57.795Z,9.06
2023-01-03T20:15:29.948Z,9.01
2023-01-03T20:17:58.205Z,9.02
2023-01-03T20:20:30.982Z,8.99
2023-01-03T20:23:12.619Z,8.97
2023-01-03T20:25:40.339Z,8.99
2023-01-03T20:28:31.201Z,8.98
2023-01-03T20:31:02.303Z,8.94
2023-01-03T20:33:30.269Z,8.80
2023-01-03T20:36:17.611Z,8.74
2023-01-03T20:38:53.118Z,8.74
2023-01-03T20:41:20.670Z,8.70
2023-01-03T20:43:50.541Z,8.71
2023-01-03T20:46:22.207Z,8.67
2023-01-03T20:48:59.746Z,8.56
2023-01-03T20:51:27.189Z,8.56
2023-01-03T20:53:55.620Z,8.45
2023-01-03T20:56:26.366Z,8.45
2023-01-03T20:58:54.028Z,8.36
2023-01-03T21:01:21.520Z,8.30
2023-01-03T21:03:49.570Z,8.32
2023-01-03T21:06:26.931Z,8.31
2023-01-03T21:08:54.716Z,8.30
2023-01-03T21:11:29.878Z,8.28
2023-01-03T21:14:01.240Z,8.28
2023-01-03T21:16:41.959Z,8.25
2023-01-03T21:19:22.961Z,8.17
2023-01-03T21:21:55.489Z,8.23
2023-01-03T21:24:25.669Z,8.21
2023-01-03T21:26:53.223Z,8.15
2023-01-03T21:29:22.112Z,8.13
2023-01-03T21:31:49.547Z,8.09
2023-01-03T21:34:21.068Z,8.10
2023-01-03T21:36:49.107Z,8.16
2023-01-03T21:39:17.079Z,8.21
2023-01-03T21:42:03.036Z,8.26
2023-01-03T21:44:30.702Z,8.30
2023-01-03T21:46:58.050Z,8.31
2023-01-03T21:49:25.763Z,8.26
2023-01-03T21:51:53.159Z,8.19
2023-01-03T21:54:21.043Z,8.24
2023-01-03T21:56:48.920Z,8.28
2023-01-03T21:59:17.470Z,8.31
2023-01-03T22:02:05.002Z,8.33
2023-01-03T22:04:33.844Z,8.37
2023-01-03T22:07:01.925Z,8.34
2023-01-03T22:10:10.113Z,8.30
2023-01-03T22:12:37.522Z,8.25
2023-01-03T22:15:05.795Z,8.16
2023-01-03T22:17:39.715Z,8.06
2023-01-03T22:20:11.773Z,8.03
2023-01-03T22:22:41.136Z,7.92
2023-01-03T22:25:13.278Z,7.88
2023-01-03T22:27:40.609Z,7.88
2023-01-03T22:30:13.088Z,7.86
2023-01-03T22:32:41.734Z,7.86
2023-01-03T22:35:11.489Z,7.86
2023-01-03T22:37:39.663Z,7.75
2023-01-03T22:40:12.538Z,7.66
2023-01-03T22:42:39.853Z,7.58
2023-01-03T22:45:09.854Z,7.46
2023-01-03T22:47:38.173Z,7.42
2023-01-03T22:50:08.468Z,7.29
2023-01-03T22:52:38.243Z,7.17
2023-01-03T22:55:07.692Z,7.17
2023-01-03T22:57:35.120Z,7.13
2023-01-03T23:00:05.776Z,7.11
2023-01-03T23:02:40.895Z,7.01
2023-01-03T23:05:09.459Z,6.95
2023-01-03T23:07:36.776Z,6.87
2023-01-03T23:10:04.712Z,6.87
2023-01-03T23:12:50.731Z,6.88
2023-01-03T23:15:18.315Z,6.84
2023-01-03T23:17:57.385Z,6.78
2023-01-03T23:20:32.747Z,6.75
2023-01-03T23:23:04.675Z,6.75
2023-01-03T23:25:35.710Z,6.72
2023-01-03T23:28:02.941Z,6.72
2023-01-03T23:30:31.255Z,6.69
2023-01-03T23:32:58.619Z,6.66
2023-01-03T23:35:26.122Z,6.60
2023-01-03T23:37:53.421Z,6.63
2023-01-03T23:40:20.980Z,6.55
2023-01-03T23:42:48.213Z,6.51
2023-01-03T23:45:15.836Z,6.52
2023-01-03T23:47:43.049Z,6.54
2023-01-03T23:50:10.631Z,6.48
2023-01-03T23:52:37.971Z,6.46
2023-01-03T23:55:12.234Z,6.41
2023-01-03T23:57:40.240Z,6.45
